Time;durP1;ratioP1;P1;durP2;ratioP2;P2;SDS_P1;SDS_P2;PMS_P1;PMS_P2;Temp;Humidity;BMP_temperature;BMP_pressure;BME280_temperature;BME280_humidity;BME280_pressure;Samples;Min_cycle;Max_cycle;Signal;HPM_P1;HPM_P2
2023/09/05 00:00:44;;;;;;;3.60;2.53;;;;;;;20.27;55.32;99703.88;5047578;28;20421;-79
2023/09/05 00:03:10;;;;;;;2.07;1.87;;;;;;;20.36;55.00;99707.41;5047864;28;20210;-79
2023/09/05 00:05:36;;;;;;;3.10;2.10;;;;;;;20.43;54.59;99711.13;5047667;28;20419;-79
2023/09/05 00:08:01;;;;;;;3.07;1.83;;;;;;;20.51;54.05;99709.34;5049972;28;20436;-79
2023/09/05 00:10:26;;;;;;;3.50;3.20;;;;;;;20.29;56.21;99710.72;5051939;28;20206;-78
2023/09/05 00:12:52;;;;;;;2.93;2.47;;;;;;;20.24;56.73;99713.03;5052175;28;20222;-78
2023/09/05 00:15:17;;;;;;;5.30;2.30;;;;;;;20.10;57.04;99708.28;5050229;28;20204;-78
2023/09/05 00:17:43;;;;;;;2.70;2.20;;;;;;;19.99;57.53;99697.88;5053191;28;20203;-78
2023/09/05 00:20:09;;;;;;;3.00;2.33;;;;;;;19.83;57.96;99701.25;5044905;28;20233;-79
2023/09/05 00:22:35;;;;;;;5.50;2.33;;;;;;;19.78;58.03;99698.19;5065634;28;20215;-80
2023/09/05 00:25:01;;;;;;;2.90;2.17;;;;;;;19.74;58.42;99696.81;5051931;28;20564;-78
2023/09/05 00:27:27;;;;;;;4.20;2.23;;;;;;;19.71;58.41;99710.47;5054875;28;20477;-79
2023/09/05 00:29:52;;;;;;;3.20;2.30;;;;;;;19.69;58.48;99699.97;5054647;28;20435;-78
2023/09/05 00:32:20;;;;;;;4.00;2.83;;;;;;;19.69;58.41;99694.63;5049337;28;21076;-79
2023/09/05 00:34:47;;;;;;;3.03;1.83;;;;;;;19.73;58.10;99687.16;5047753;28;20261;-78
2023/09/05 00:37:21;;;;;;;7.10;2.60;;;;;;;19.76;57.87;99700.19;5030645;28;20474;-79
2023/09/05 00:39:47;;;;;;;2.80;1.90;;;;;;;19.78;57.85;99692.88;5030752;28;20561;-79
2023/09/05 00:42:14;;;;;;;4.40;2.50;;;;;;;19.74;58.03;99696.81;5048885;28;20434;-79
2023/09/05 00:44:39;;;;;;;2.53;2.20;;;;;;;19.69;58.34;99699.13;5048814;28;20215;-78
2023/09/05 00:47:05;;;;;;;2.50;1.93;;;;;;;19.64;58.68;99700.38;5048008;28;20474;-78
2023/09/05 00:49:39;;;;;;;3.10;2.80;;;;;;;19.60;58.66;99701.66;5045948;28;20201;-78
2023/09/05 00:52:05;;;;;;;2.60;2.40;;;;;;;19.54;59.16;99702.28;5045916;28;20457;-79
2023/09/05 00:54:32;;;;;;;2.73;2.27;;;;;;;19.44;59.66;99696.19;5045505;28;20469;-78
2023/09/05 00:56:58;;;;;;;3.33;2.23;;;;;;;19.30;60.33;99699.41;5046747;28;20416;-79
2023/09/05 00:59:25;;;;;;;3.20;2.40;;;;;;;19.14;60.95;99697.41;5027542;28;20475;-79
2023/09/05 01:01:50;;;;;;;3.20;2.90;;;;;;;18.97;61.54;99691.91;5045988;28;20418;-79
2023/09/05 01:04:16;;;;;;;2.80;2.03;;;;;;;18.86;61.72;99691.28;5045033;28;20690;-79
2023/09/05 01:06:47;;;;;;;5.15;3.03;;;;;;;18.78;62.62;99697.34;5043374;28;20825;-79
2023/09/05 01:09:35;;;;;;;2.53;2.33;;;;;;;18.71;63.12;99682.91;5046618;28;20659;-79
2023/09/05 01:12:01;;;;;;;3.13;2.70;;;;;;;18.69;62.84;99690.22;5039893;28;20492;-79
2023/09/05 01:14:27;;;;;;;3.63;2.57;;;;;;;18.70;62.85;99691.91;5041010;28;20552;-79
2023/09/05 01:16:56;;;;;;;4.13;2.30;;;;;;;18.76;62.79;99700.16;5024554;28;20460;-78
2023/09/05 01:19:22;;;;;;;3.23;2.87;;;;;;;18.81;62.91;99696.22;5046467;28;20744;-79
2023/09/05 01:22:04;;;;;;;3.63;2.47;;;;;;;18.82;62.61;99693.38;5048568;28;20439;-79
2023/09/05 01:24:29;;;;;;;3.73;2.83;;;;;;;18.79;62.68;99686.56;5029350;28;20465;-79
2023/09/05 01:26:55;;;;;;;5.47;2.73;;;;;;;18.78;62.45;99700.00;5026493;28;20469;-79
2023/09/05 01:29:34;;;;;;;2.27;2.07;;;;;;;18.74;62.47;99707.47;5029834;28;20280;-79
2023/09/05 01:32:01;;;;;;;2.70;2.17;;;;;;;18.71;62.92;99705.06;5029243;28;20444;-78
2023/09/05 01:34:27;;;;;;;5.80;2.97;;;;;;;18.65;62.77;99705.63;5046642;28;21187;-79
2023/09/05 01:36:52;;;;;;;2.73;2.27;;;;;;;18.61;63.02;99701.59;5027045;28;20418;-79
2023/09/05 01:39:18;;;;;;;2.60;1.90;;;;;;;18.60;63.24;99705.22;5045581;28;20228;-79
2023/09/05 01:41:44;;;;;;;4.27;2.40;;;;;;;18.57;63.37;99703.69;5046447;28;20422;-79
2023/09/05 01:44:12;;;;;;;3.60;2.40;;;;;;;18.48;63.58;99704.59;5045064;28;20466;-79
2023/09/05 01:46:38;;;;;;;2.57;1.80;;;;;;;18.44;63.72;99689.06;5045025;28;20568;-79
2023/09/05 01:49:03;;;;;;;3.00;2.63;;;;;;;18.40;64.10;99693.84;5045692;28;20670;-79
2023/09/05 01:51:29;;;;;;;2.87;2.60;;;;;;;18.39;64.15;99692.19;5024146;28;20232;-79
2023/09/05 01:53:54;;;;;;;3.90;3.10;;;;;;;18.40;63.96;99703.66;5043707;28;20219;-79
2023/09/05 01:56:20;;;;;;;5.63;3.07;;;;;;;18.36;64.09;99703.09;5045302;28;20688;-79
2023/09/05 01:58:45;;;;;;;4.80;2.83;;;;;;;18.35;64.18;99702.25;5045529;28;20198;-79
2023/09/05 02:01:10;;;;;;;3.50;2.57;;;;;;;18.33;64.13;99714.00;5026867;28;20205;-79
2023/09/05 02:03:36;;;;;;;4.40;2.73;;;;;;;18.29;64.20;99710.81;5042364;28;20422;-79
2023/09/05 02:06:01;;;;;;;4.37;2.73;;;;;;;18.23;64.32;99699.94;5024472;28;20491;-79
2023/09/05 02:08:27;;;;;;;3.70;2.90;;;;;;;18.19;64.45;99715.31;5043468;28;21062;-79
2023/09/05 02:10:52;;;;;;;5.50;3.00;;;;;;;18.16;64.70;99718.25;5044193;28;20707;-79
2023/09/05 02:13:18;;;;;;;3.20;2.30;;;;;;;18.16;64.63;99710.28;5042247;28;20197;-79
2023/09/05 02:15:43;;;;;;;5.23;3.00;;;;;;;18.18;64.62;99705.69;5041399;28;20287;-79
2023/09/05 02:18:11;;;;;;;2.87;2.57;;;;;;;18.19;64.25;99703.84;5037496;28;20201;-79
2023/09/05 02:20:40;;;;;;;3.20;2.10;;;;;;;18.18;64.29;99713.66;5025821;28;20967;-79
2023/09/05 02:23:07;;;;;;;2.83;2.57;;;;;;;18.16;64.30;99709.47;5021301;28;20549;-79
2023/09/05 02:25:32;;;;;;;2.97;2.23;;;;;;;18.14;64.30;99710.41;5040591;28;20454;-78
2023/09/05 02:27:58;;;;;;;2.40;2.20;;;;;;;18.12;64.28;99703.59;5017324;28;20806;-79
2023/09/05 02:30:25;;;;;;;2.60;1.83;;;;;;;18.12;64.14;99715.06;5026555;28;20556;-79
2023/09/05 02:32:55;;;;;;;3.43;2.40;;;;;;;18.14;64.06;99715.75;5025619;28;20487;-78
2023/09/05 02:35:27;;;;;;;4.50;2.10;;;;;;;18.16;64.13;99718.25;5039323;28;20449;-78
2023/09/05 02:37:54;;;;;;;2.70;2.50;;;;;;;18.16;64.29;99728.06;5038445;28;20848;-79
2023/09/05 02:40:20;;;;;;;4.33;2.93;;;;;;;18.16;64.10;99720.09;5046207;28;20487;-79
2023/09/05 02:42:46;;;;;;;3.70;2.47;;;;;;;18.12;64.07;99730.19;5045653;28;20948;-78
2023/09/05 02:45:12;;;;;;;2.30;2.10;;;;;;;18.07;64.22;99735.09;5039896;28;20457;-79
2023/09/05 02:47:38;;;;;;;3.37;2.67;;;;;;;18.02;64.47;99734.66;5042889;28;20231;-79
2023/09/05 02:50:04;;;;;;;4.83;2.67;;;;;;;17.99;64.75;99735.78;5027082;28;20447;-79
2023/09/05 02:52:31;;;;;;;3.10;2.53;;;;;;;17.91;64.82;99739.16;5045576;28;20431;-79
2023/09/05 02:54:57;;;;;;;5.23;3.30;;;;;;;17.77;65.34;99744.00;5027879;28;20568;-79
2023/09/05 02:57:23;;;;;;;6.27;2.77;;;;;;;17.61;65.59;99752.56;5046179;28;20454;-78
2023/09/05 02:59:52;;;;;;;3.73;2.83;;;;;;;17.48;65.72;99748.34;5047221;28;20200;-79
2023/09/05 03:02:18;;;;;;;6.33;3.53;;;;;;;17.42;66.03;99751.56;5039486;28;20490;-79
2023/09/05 03:04:43;;;;;;;3.80;3.00;;;;;;;17.40;66.80;99753.50;5044487;28;20435;-79
2023/09/05 03:07:09;;;;;;;3.00;2.70;;;;;;;17.42;66.75;99762.19;5051785;28;20961;-78
2023/09/05 03:09:34;;;;;;;3.10;2.80;;;;;;;17.44;66.75;99762.03;5031068;28;20204;-77
2023/09/05 03:12:00;;;;;;;3.60;2.80;;;;;;;17.41;66.70;99757.84;5053392;28;20197;-78
2023/09/05 03:14:25;;;;;;;4.77;3.10;;;;;;;17.38;66.62;99755.47;5055916;28;20213;-78
2023/09/05 03:16:51;;;;;;;2.97;2.30;;;;;;;17.38;66.67;99755.47;5037712;28;20869;-78
2023/09/05 03:19:16;;;;;;;3.27;2.97;;;;;;;17.38;66.80;99746.66;5055402;28;20284;-78
2023/09/05 03:21:42;;;;;;;2.50;2.10;;;;;;;17.37;66.71;99756.44;5057520;28;20254;-77
2023/09/05 03:24:07;;;;;;;3.77;2.30;;;;;;;17.38;66.58;99758.13;5033364;28;20231;-77
2023/09/05 03:26:33;;;;;;;3.00;2.37;;;;;;;17.35;66.67;99755.75;5056660;28;20814;-76
2023/09/05 03:28:59;;;;;;;3.73;3.33;;;;;;;17.32;66.78;99761.31;5035853;28;20193;-77
2023/09/05 03:31:28;;;;;;;3.20;2.90;;;;;;;17.28;66.77;99762.56;5037245;28;20263;-77
2023/09/05 03:33:55;;;;;;;7.10;4.17;;;;;;;17.22;67.10;99768.44;5041956;28;20628;-77
2023/09/05 03:36:21;;;;;;;4.93;3.30;;;;;;;17.13;67.31;99763.94;5059381;28;20475;-77
2023/09/05 03:38:47;;;;;;;5.73;2.60;;;;;;;17.07;67.53;99767.16;5051822;28;20201;-77
2023/09/05 03:41:13;;;;;;;3.70;3.33;;;;;;;17.00;67.54;99767.66;5036040;28;20482;-77
2023/09/05 03:43:38;;;;;;;3.00;2.63;;;;;;;16.94;67.88;99768.22;5050758;28;20835;-78
2023/09/05 03:46:04;;;;;;;14.70;3.03;;;;;;;16.88;68.07;99759.97;5052993;28;20471;-78
2023/09/05 03:48:29;;;;;;;2.93;2.63;;;;;;;16.82;68.28;99761.31;5053208;28;20682;-78
2023/09/05 03:50:55;;;;;;;3.20;2.77;;;;;;;16.80;68.25;99763.28;5050149;28;20197;-78
2023/09/05 03:53:21;;;;;;;3.00;2.63;;;;;;;16.79;68.31;99761.59;5036246;28;20211;-79
2023/09/05 03:55:47;;;;;;;2.87;2.63;;;;;;;16.79;68.47;99767.72;5053369;28;20204;-78
2023/09/05 03:58:13;;;;;;;3.70;2.90;;;;;;;16.75;68.75;99771.59;5054907;28;20641;-79
2023/09/05 04:00:39;;;;;;;5.33;3.57;;;;;;;16.73;68.79;99778.84;5048675;28;21318;-78
2023/09/05 04:03:05;;;;;;;2.53;2.30;;;;;;;16.74;68.71;99780.53;5048439;28;20677;-77
2023/09/05 04:05:32;;;;;;;3.42;3.00;;;;;;;16.76;68.70;99775.09;5031487;28;20437;-78
2023/09/05 04:07:58;;;;;;;3.60;2.83;;;;;;;16.71;69.00;99785.25;5049897;28;20295;-78
2023/09/05 04:10:23;;;;;;;2.83;2.53;;;;;;;16.67;69.19;99776.72;5035183;28;20584;-78
2023/09/05 04:12:52;;;;;;;4.27;2.73;;;;;;;16.67;69.13;99783.84;5033113;28;20193;-77
2023/09/05 04:15:21;;;;;;;3.93;2.80;;;;;;;16.67;69.08;99795.28;5049159;28;20201;-78
2023/09/05 04:17:47;;;;;;;4.63;3.93;;;;;;;16.67;69.05;99792.66;5049874;28;20451;-77
2023/09/05 04:20:13;;;;;;;4.33;3.10;;;;;;;16.70;69.08;99797.69;5050221;28;21001;-77
2023/09/05 04:22:39;;;;;;;6.97;3.90;;;;;;;16.71;68.81;99798.50;5048471;28;20417;-78
2023/09/05 04:25:06;;;;;;;3.30;2.90;;;;;;;16.70;69.03;99799.50;5048220;28;21002;-77
2023/09/05 04:27:31;;;;;;;3.20;2.50;;;;;;;16.69;69.00;99819.00;5048217;28;20776;-77
2023/09/05 04:29:56;;;;;;;6.07;4.53;;;;;;;16.68;69.20;99817.34;5051328;28;20447;-78
2023/09/05 04:32:30;;;;;;;4.90;3.57;;;;;;;16.60;69.44;99818.84;5047396;28;20201;-78
2023/09/05 04:34:58;;;;;;;4.80;3.60;;;;;;;16.48;69.70;99825.19;5029616;28;20579;-77
2023/09/05 04:37:24;;;;;;;4.33;3.30;;;;;;;16.40;70.36;99824.16;5048949;28;20426;-78
2023/09/05 04:39:51;;;;;;;3.37;2.70;;;;;;;16.37;70.57;99835.88;5050334;28;20446;-78
2023/09/05 04:42:17;;;;;;;5.53;2.70;;;;;;;16.38;70.47;99840.19;5047298;28;20442;-77
2023/09/05 04:44:43;;;;;;;3.80;3.00;;;;;;;16.39;70.37;99849.84;5048574;28;21298;-78
2023/09/05 04:47:21;;;;;;;3.30;2.90;;;;;;;16.37;70.06;99846.47;5047638;28;20220;-77
2023/09/05 04:49:51;;;;;;;3.00;2.63;;;;;;;16.37;70.19;99855.25;5047859;28;20203;-78
2023/09/05 04:52:17;;;;;;;5.70;2.65;;;;;;;16.38;69.98;99853.44;5048212;28;20458;-78
2023/09/05 04:54:43;;;;;;;5.20;3.10;;;;;;;16.38;69.83;99854.28;5030931;28;20262;-78
2023/09/05 04:57:10;;;;;;;3.83;2.50;;;;;;;16.36;69.68;99858.03;5029805;28;20468;-78
2023/09/05 04:59:37;;;;;;;3.30;2.00;;;;;;;16.30;69.74;99866.50;5028453;28;20197;-77
2023/09/05 05:02:06;;;;;;;4.03;2.23;;;;;;;16.25;69.79;99864.22;5029758;28;20783;-78
2023/09/05 05:04:32;;;;;;;2.87;2.60;;;;;;;16.23;69.67;99865.31;5039593;28;20457;-78
2023/09/05 05:06:57;;;;;;;4.43;2.60;;;;;;;16.24;69.65;99867.03;5051021;28;20787;-78
2023/09/05 05:09:23;;;;;;;2.63;2.43;;;;;;;16.24;69.65;99864.38;5055514;28;20208;-78
2023/09/05 05:11:48;;;;;;;3.27;3.00;;;;;;;16.24;69.66;99867.03;5058349;28;20192;-78
2023/09/05 05:14:14;;;;;;;4.83;3.57;;;;;;;16.35;69.44;99865.16;5057452;28;20213;-78
2023/09/05 05:16:43;;;;;;;5.20;2.90;;;;;;;16.70;68.63;99869.28;5048041;28;20196;-77
2023/09/05 05:19:09;;;;;;;3.67;2.53;;;;;;;17.13;67.28;99867.47;5038319;28;20290;-77
2023/09/05 05:21:35;;;;;;;2.83;2.50;;;;;;;17.47;66.33;99874.16;5031143;28;20562;-77
2023/09/05 05:24:00;;;;;;;3.57;3.37;;;;;;;17.66;65.61;99877.81;5029322;28;21006;-78
2023/09/05 05:26:28;;;;;;;4.97;3.10;;;;;;;17.71;65.11;99872.94;5046088;28;20855;-78
2023/09/05 05:28:53;;;;;;;3.87;2.90;;;;;;;17.61;64.99;99872.94;5048987;28;20197;-78
2023/09/05 05:31:19;;;;;;;5.37;3.27;;;;;;;17.45;65.11;99873.44;5048955;28;20824;-78
2023/09/05 05:33:44;;;;;;;2.73;2.50;;;;;;;17.25;65.76;99877.00;5046104;28;20209;-78
2023/09/05 05:36:10;;;;;;;5.20;3.50;;;;;;;17.20;66.11;99873.91;5044621;28;20502;-78
2023/09/05 05:38:35;;;;;;;5.10;3.03;;;;;;;17.20;65.98;99876.56;5047015;28;20201;-78
2023/09/05 05:41:02;;;;;;;4.77;2.53;;;;;;;17.19;66.12;99874.88;5045788;28;20226;-77
2023/09/05 05:43:29;;;;;;;4.33;2.73;;;;;;;17.18;66.30;99876.69;5045292;28;20209;-77
2023/09/05 05:45:54;;;;;;;4.50;2.90;;;;;;;17.21;66.02;99878.25;5044758;28;21130;-78
2023/09/05 05:48:20;;;;;;;3.70;3.20;;;;;;;17.24;66.11;99888.59;5046869;28;20459;-78
2023/09/05 05:50:45;;;;;;;3.10;2.80;;;;;;;17.24;66.05;99878.81;5044571;28;20189;-78
2023/09/05 05:53:11;;;;;;;3.30;2.97;;;;;;;17.27;65.98;99888.31;5048224;28;20324;-78
2023/09/05 05:55:36;;;;;;;5.73;2.83;;;;;;;17.29;65.98;99877.59;5046646;28;20362;-78
2023/09/05 05:58:01;;;;;;;4.00;3.00;;;;;;;17.54;65.74;99885.06;5047124;28;20212;-77
2023/09/05 06:00:29;;;;;;;2.97;2.70;;;;;;;18.16;64.71;99879.59;5046624;28;20201;-77
2023/09/05 06:02:55;;;;;;;3.97;2.77;;;;;;;18.95;62.56;99877.53;5049004;28;20333;-78
2023/09/05 06:05:21;;;;;;;3.40;2.63;;;;;;;19.67;60.65;99873.34;5047901;28;20488;-78
2023/09/05 06:07:47;;;;;;;6.33;2.73;;;;;;;20.27;59.12;99862.06;5048047;28;20470;-78
2023/09/05 06:10:13;;;;;;;10.03;3.27;;;;;;;20.49;58.43;99860.75;5048589;28;20205;-78
2023/09/05 06:12:38;;;;;;;4.30;2.67;;;;;;;20.66;58.10;99856.41;5044608;28;20201;-78
2023/09/05 06:15:04;;;;;;;5.77;3.17;;;;;;;21.06;57.30;99857.63;5047537;28;20654;-78
2023/09/05 06:17:29;;;;;;;2.53;2.33;;;;;;;21.61;56.26;99859.09;5046311;28;20191;-78
2023/09/05 06:19:55;;;;;;;4.00;2.40;;;;;;;22.21;54.63;99860.72;5044428;28;20725;-78
2023/09/05 06:22:20;;;;;;;3.63;2.40;;;;;;;22.73;53.27;99863.84;5044651;28;20311;-78
2023/09/05 06:24:46;;;;;;;2.80;2.60;;;;;;;23.15;52.08;99853.91;5039814;28;20241;-78
2023/09/05 06:27:11;;;;;;;3.37;3.07;;;;;;;23.16;52.11;99856.41;5041581;28;20295;-78
2023/09/05 06:29:37;;;;;;;2.23;2.03;;;;;;;22.93;51.87;99850.09;5040775;28;20193;-79
2023/09/05 06:32:03;;;;;;;5.60;2.10;;;;;;;22.46;52.82;99853.50;5039268;28;20677;-78
2023/09/05 06:34:28;;;;;;;3.23;2.93;;;;;;;22.03;53.65;99853.63;5019393;28;20236;-78
2023/09/05 06:36:54;;;;;;;3.40;2.90;;;;;;;21.66;54.52;99854.09;5044352;28;20432;-78
2023/09/05 06:39:19;;;;;;;4.30;3.00;;;;;;;21.39;54.81;99852.50;5041029;28;20215;-78
2023/09/05 06:41:44;;;;;;;4.93;3.33;;;;;;;21.17;55.35;99851.19;5039972;28;21134;-78
2023/09/05 06:44:10;;;;;;;4.77;3.43;;;;;;;20.97;55.48;99855.94;5041650;28;20204;-78
2023/09/05 06:46:36;;;;;;;4.53;3.20;;;;;;;20.82;55.90;99858.38;5039601;28;20304;-78
2023/09/05 06:49:02;;;;;;;5.00;4.07;;;;;;;20.68;56.45;99858.91;5042811;28;20545;-78
2023/09/05 06:51:29;;;;;;;4.83;3.50;;;;;;;20.58;56.40;99850.16;5039445;28;21221;-78
2023/09/05 06:53:55;;;;;;;4.70;3.50;;;;;;;20.46;56.92;99855.72;5038125;28;20481;-78
2023/09/05 06:56:20;;;;;;;4.93;3.17;;;;;;;20.34;57.17;99854.31;5042391;28;20437;-78
2023/09/05 06:58:47;;;;;;;3.60;2.60;;;;;;;20.25;57.21;99861.41;5041756;28;20785;-78
2023/09/05 07:01:13;;;;;;;3.50;2.80;;;;;;;20.09;57.24;99858.56;5045703;28;20199;-78
2023/09/05 07:03:38;;;;;;;3.27;2.70;;;;;;;19.98;57.56;99858.81;5043465;28;20474;-78
2023/09/05 07:06:04;;;;;;;2.93;2.70;;;;;;;19.93;57.79;99856.63;5044305;28;20887;-77
2023/09/05 07:08:31;;;;;;;3.17;2.53;;;;;;;19.96;57.77;99861.66;5042412;28;21112;-77
2023/09/05 07:10:56;;;;;;;3.70;2.80;;;;;;;20.00;57.74;99867.50;5043643;28;20228;-78
2023/09/05 07:13:22;;;;;;;5.00;3.23;;;;;;;19.99;58.07;99872.00;5041265;28;20476;-78
2023/09/05 07:15:47;;;;;;;3.67;2.90;;;;;;;20.01;57.98;99862.03;5022676;28;20223;-78
2023/09/05 07:18:12;;;;;;;3.23;2.73;;;;;;;20.07;57.84;99868.59;5041084;28;20194;-78
2023/09/05 07:20:38;;;;;;;4.50;2.93;;;;;;;20.15;57.61;99865.16;5037794;28;20251;-78
2023/09/05 07:23:04;;;;;;;3.37;2.70;;;;;;;20.22;57.75;99860.88;5043091;28;20212;-78
2023/09/05 07:25:29;;;;;;;4.83;2.87;;;;;;;20.25;57.75;99864.09;5042730;28;20813;-78
2023/09/05 07:27:54;;;;;;;3.83;3.10;;;;;;;20.38;57.70;99866.34;5046215;28;20237;-78
2023/09/05 07:30:20;;;;;;;4.07;2.70;;;;;;;20.89;56.61;99864.72;5058050;28;20205;-79
2023/09/05 07:32:45;;;;;;;5.40;3.43;;;;;;;21.81;54.53;99860.44;5061786;28;20709;-79
2023/09/05 07:35:11;;;;;;;4.30;3.13;;;;;;;23.05;51.20;99854.09;5036731;28;20487;-79
2023/09/05 07:37:38;;;;;;;2.87;2.50;;;;;;;23.93;48.89;99850.34;5042841;28;20251;-79
2023/09/05 07:40:05;;;;;;;5.40;2.63;;;;;;;24.80;47.03;99849.97;5042509;28;20202;-79
2023/09/05 07:42:31;;;;;;;5.90;3.40;;;;;;;25.66;45.10;99847.59;5035463;28;20474;-79
2023/09/05 07:44:56;;;;;;;2.67;2.33;;;;;;;26.34;43.98;99831.13;5049192;28;20887;-79
2023/09/05 07:47:22;;;;;;;3.90;2.30;;;;;;;26.96;42.54;99827.63;5051090;28;20201;-79
2023/09/05 07:49:47;;;;;;;5.00;2.70;;;;;;;27.29;42.09;99829.69;5052308;28;20211;-79
2023/09/05 07:52:13;;;;;;;2.80;2.50;;;;;;;27.53;41.62;99831.03;5050028;28;20298;-80
2023/09/05 07:54:38;;;;;;;3.90;3.50;;;;;;;27.65;41.37;99823.16;5053894;28;20208;-79
2023/09/05 07:57:04;;;;;;;5.93;3.20;;;;;;;27.92;41.04;99830.34;5051786;28;20185;-79
2023/09/05 07:59:31;;;;;;;3.87;2.80;;;;;;;28.24;40.07;99830.56;5047656;28;20717;-80
2023/09/05 08:01:58;;;;;;;4.50;3.27;;;;;;;28.60;39.18;99832.06;5044641;28;20447;-79
2023/09/05 08:04:23;;;;;;;3.57;3.27;;;;;;;29.08;38.41;99831.75;5043447;28;20850;-79
2023/09/05 08:06:49;;;;;;;4.40;2.90;;;;;;;29.60;37.35;99831.72;5043106;28;20470;-79
2023/09/05 08:09:14;;;;;;;5.40;3.90;;;;;;;29.96;36.09;99836.56;5042946;28;20212;-79
2023/09/05 08:11:40;;;;;;;2.50;2.30;;;;;;;30.20;35.87;99829.50;5042824;28;20197;-79
2023/09/05 08:14:06;;;;;;;3.30;2.83;;;;;;;30.57;35.13;99827.75;5041881;28;20205;-79
2023/09/05 08:16:31;;;;;;;3.30;2.87;;;;;;;30.89;34.45;99830.38;5041447;28;20200;-79
2023/09/05 08:18:57;;;;;;;6.20;3.50;;;;;;;31.24;33.58;99818.91;5040258;28;20209;-79
2023/09/05 08:21:22;;;;;;;3.17;2.97;;;;;;;31.50;33.51;99818.59;5041595;28;20201;-79
2023/09/05 08:23:50;;;;;;;8.67;2.97;;;;;;;31.60;33.35;99823.50;5041079;28;20799;-79
2023/09/05 08:26:16;;;;;;;3.57;3.00;;;;;;;31.60;33.30;99814.53;5048236;28;20295;-79
2023/09/05 08:28:44;;;;;;;4.87;3.03;;;;;;;31.58;33.06;99811.22;5043724;28;21064;-79
2023/09/05 08:31:10;;;;;;;4.10;3.17;;;;;;;31.45;33.36;99812.22;5054775;28;20447;-79
2023/09/05 08:33:36;;;;;;;4.70;3.40;;;;;;;31.48;32.96;99812.56;5056598;28;20504;-79
2023/09/05 08:36:04;;;;;;;5.23;2.90;;;;;;;31.34;33.16;99819.22;5053374;28;20255;-79
2023/09/05 08:38:30;;;;;;;3.70;2.90;;;;;;;31.19;33.58;99821.47;5028395;28;20250;-79
2023/09/05 08:41:02;;;;;;;3.70;2.97;;;;;;;31.06;33.40;99820.59;5053450;28;20505;-79
2023/09/05 08:43:28;;;;;;;4.70;3.33;;;;;;;31.16;33.37;99814.63;5043232;28;20249;-79
2023/09/05 08:45:54;;;;;;;3.70;3.00;;;;;;;31.32;33.28;99818.59;5043385;28;21347;-79
2023/09/05 08:48:20;;;;;;;4.50;2.73;;;;;;;31.40;33.07;99810.19;5043171;28;20197;-81
2023/09/05 08:50:47;;;;;;;4.30;2.73;;;;;;;31.47;32.41;99808.22;5042016;28;20906;-78
2023/09/05 08:53:15;;;;;;;3.80;3.40;;;;;;;31.40;32.56;99807.47;5040709;28;20212;-80
2023/09/05 08:55:42;;;;;;;3.90;2.90;;;;;;;31.25;32.86;99807.03;5042779;28;20489;-80
2023/09/05 08:58:13;;;;;;;4.10;2.53;;;;;;;31.17;33.15;99796.47;5043184;28;20522;-80
2023/09/05 09:00:39;;;;;;;4.60;2.87;;;;;;;30.96;33.94;99797.78;5041578;28;21156;-78
2023/09/05 09:03:07;;;;;;;5.17;3.27;;;;;;;30.54;34.60;99800.25;5043256;28;20489;-80
2023/09/05 09:05:33;;;;;;;3.38;2.92;;;;;;;30.19;35.27;99798.88;5047591;28;20438;-80
2023/09/05 09:07:59;;;;;;;5.57;3.70;;;;;;;29.90;35.80;99804.94;5049687;28;20923;-80
2023/09/05 09:10:24;;;;;;;4.53;3.37;;;;;;;29.61;36.53;99803.63;5047853;28;20459;-79
2023/09/05 09:12:55;;;;;;;4.70;3.27;;;;;;;29.22;36.88;99805.47;5049945;28;20515;-79
2023/09/05 09:15:24;;;;;;;10.23;3.10;;;;;;;28.93;37.51;99804.13;5032298;28;20201;-79
2023/09/05 09:17:52;;;;;;;4.17;3.27;;;;;;;28.78;37.77;99793.53;5043145;28;20443;-79
2023/09/05 09:20:19;;;;;;;4.10;3.47;;;;;;;28.75;38.04;99794.78;5045896;28;20466;-79
2023/09/05 09:22:45;;;;;;;5.10;3.37;;;;;;;28.80;37.98;99797.69;5043301;28;20454;-79
2023/09/05 09:25:22;;;;;;;3.20;2.90;;;;;;;28.50;38.33;99793.81;5044088;28;20462;-79
2023/09/05 09:27:53;;;;;;;3.30;3.00;;;;;;;28.06;39.11;99793.38;5041564;28;20479;-79
2023/09/05 09:30:21;;;;;;;3.60;3.30;;;;;;;27.86;39.20;99796.03;5026360;28;20466;-79
2023/09/05 09:32:52;;;;;;;3.53;3.10;;;;;;;27.87;39.48;99788.78;5043667;28;20452;-79
2023/09/05 09:35:19;;;;;;;2.90;2.60;;;;;;;28.10;38.97;99793.78;5045140;28;20477;-79
2023/09/05 09:37:49;;;;;;;3.67;3.17;;;;;;;28.34;39.00;99781.53;5041042;28;20516;-79
2023/09/05 09:40:16;;;;;;;3.90;2.60;;;;;;;28.40;38.67;99780.69;5042745;28;20459;-78
2023/09/05 09:42:46;;;;;;;3.00;2.43;;;;;;;28.39;38.25;99774.44;5045684;28;20542;-79
2023/09/05 09:45:11;;;;;;;3.10;2.70;;;;;;;28.40;38.27;99773.41;5044023;28;21251;-79
2023/09/05 09:47:48;;;;;;;3.60;2.90;;;;;;;28.50;38.02;99766.78;5042105;28;20518;-78
2023/09/05 09:50:14;;;;;;;3.97;3.40;;;;;;;28.57;37.82;99764.88;5044603;28;20818;-79
2023/09/05 09:52:44;;;;;;;7.87;3.93;;;;;;;28.72;37.75;99760.06;5043202;28;20518;-79
2023/09/05 09:55:11;;;;;;;3.90;2.80;;;;;;;28.85;37.69;99754.63;5041876;28;20467;-78
2023/09/05 09:57:45;;;;;;;6.90;2.53;;;;;;;28.96;37.55;99763.13;5043270;28;20436;-79
2023/09/05 10:00:15;;;;;;;3.67;3.33;;;;;;;29.08;36.81;99764.13;5043971;28;20452;-79
2023/09/05 10:02:45;;;;;;;3.43;2.60;;;;;;;29.14;36.31;99760.59;5041051;28;20447;-79
2023/09/05 10:05:12;;;;;;;2.90;2.40;;;;;;;29.19;36.10;99758.06;5046953;28;20536;-79
2023/09/05 10:07:38;;;;;;;4.03;3.60;;;;;;;29.29;36.05;99763.81;5048779;28;21169;-79
2023/09/05 10:10:06;;;;;;;4.60;2.47;;;;;;;29.32;35.91;99760.69;5042146;28;20579;-79
2023/09/05 10:12:33;;;;;;;4.80;2.90;;;;;;;29.34;35.74;99764.00;5045731;28;20459;-79
2023/09/05 10:15:02;;;;;;;3.10;2.80;;;;;;;29.38;36.07;99758.16;5045885;28;20520;-79
2023/09/05 10:17:30;;;;;;;2.87;2.57;;;;;;;29.43;36.19;99752.94;5043799;28;20470;-79
2023/09/05 10:19:57;;;;;;;3.80;3.07;;;;;;;29.45;36.21;99758.97;5046612;28;20501;-79
2023/09/05 10:22:24;;;;;;;3.50;2.90;;;;;;;29.39;36.22;99759.84;5048363;28;20443;-79
2023/09/05 10:24:50;;;;;;;4.30;3.00;;;;;;;29.34;36.30;99763.19;5044103;28;20469;-79
2023/09/05 10:27:16;;;;;;;3.10;2.43;;;;;;;29.23;36.13;99762.00;5046002;28;20471;-79
2023/09/05 10:29:42;;;;;;;3.80;2.80;;;;;;;29.22;35.92;99756.78;5027883;28;20451;-79
2023/09/05 10:32:09;;;;;;;3.33;2.27;;;;;;;29.16;36.23;99763.88;5029703;28;20203;-80
2023/09/05 10:34:46;;;;;;;2.67;2.47;;;;;;;29.05;36.91;99756.44;5047747;28;20971;-79
2023/09/05 10:37:17;;;;;;;4.00;2.53;;;;;;;29.01;37.17;99758.72;5045454;28;20462;-79
2023/09/05 10:39:54;;;;;;;5.10;2.53;;;;;;;29.12;36.52;99754.56;5049401;28;21017;-79
2023/09/05 10:42:28;;;;;;;3.03;2.73;;;;;;;29.17;36.10;99752.03;5047281;28;20462;-79
2023/09/05 10:44:53;;;;;;;2.80;2.43;;;;;;;29.14;35.97;99755.19;5045959;28;20470;-79
2023/09/05 10:47:28;;;;;;;2.47;2.23;;;;;;;29.19;36.18;99740.97;5048133;28;20479;-79
2023/09/05 10:50:05;;;;;;;2.73;2.43;;;;;;;29.21;35.70;99745.13;5045885;28;20204;-79
2023/09/05 10:52:31;;;;;;;3.53;2.60;;;;;;;29.27;35.80;99740.72;5047281;28;20451;-79
2023/09/05 10:54:58;;;;;;;3.33;2.87;;;;;;;29.41;36.18;99741.47;5048908;28;20458;-79
2023/09/05 10:57:40;;;;;;;2.63;2.37;;;;;;;29.48;36.47;99737.69;5045196;28;20232;-79
2023/09/05 11:00:15;;;;;;;5.03;2.47;;;;;;;29.53;36.54;99737.06;5048265;28;20455;-80
2023/09/05 11:02:41;;;;;;;3.07;2.33;;;;;;;29.51;36.14;99731.03;5048523;28;20469;-79
2023/09/05 11:05:20;;;;;;;3.77;3.13;;;;;;;29.58;36.10;99726.41;5048292;28;20469;-79
2023/09/05 11:07:48;;;;;;;3.77;3.00;;;;;;;29.70;35.89;99723.84;5050655;28;20496;-79
2023/09/05 11:10:34;;;;;;;3.93;2.80;;;;;;;29.80;36.08;99721.47;5047214;28;20451;-80
2023/09/05 11:13:14;;;;;;;2.97;2.77;;;;;;;29.84;36.09;99725.41;5047225;28;20819;-80
2023/09/05 11:15:43;;;;;;;2.73;2.17;;;;;;;29.78;36.16;99718.16;5048725;28;21650;-80
2023/09/05 11:18:11;;;;;;;3.20;2.90;;;;;;;29.69;36.18;99709.47;5051925;28;20968;-79
2023/09/05 11:20:42;;;;;;;3.27;2.67;;;;;;;29.69;36.47;99698.66;5051379;28;20454;-80
2023/09/05 11:23:18;;;;;;;3.80;2.57;;;;;;;29.78;36.20;99696.50;5048353;28;20525;-79
2023/09/05 11:25:46;;;;;;;2.60;2.37;;;;;;;29.86;36.23;99700.81;5050373;28;21669;-80
2023/09/05 11:28:13;;;;;;;5.00;2.70;;;;;;;29.82;36.42;99695.00;5048858;28;20471;-79
2023/09/05 11:30:42;;;;;;;3.63;2.90;;;;;;;29.65;36.39;99699.31;5046716;28;20508;-80
2023/09/05 11:33:16;;;;;;;3.20;2.90;;;;;;;29.61;36.49;99688.06;5048168;28;20475;-78